createdAt,value
2018-04-19T04:51:22.574Z,99.90
2018-04-19T04:53:50.452Z,99.90
2018-04-19T04:56:18.296Z,99.40
2018-04-19T04:58:46.100Z,99.00
2018-04-19T05:01:14.699Z,98.40
2018-04-19T05:03:42.613Z,98.30
2018-04-19T05:06:10.583Z,98.60
2018-04-19T05:08:38.479Z,98.40
2018-04-19T05:11:07.126Z,98.30
2018-04-19T05:13:34.900Z,98.30
2018-04-19T05:16:04.302Z,98.20
2018-04-19T05:18:32.266Z,98.10
2018-04-19T05:21:05.243Z,97.90
2018-04-19T05:23:33.272Z,98.10
2018-04-19T05:26:01.394Z,97.70
2018-04-19T05:28:29.264Z,97.60
2018-04-19T05:30:57.125Z,97.70
2018-04-19T05:33:24.996Z,97.50
2018-04-19T05:35:52.870Z,97.30
2018-04-19T05:38:20.728Z,97.00
2018-04-19T05:40:48.797Z,96.90
2018-04-19T05:43:16.661Z,97.00
2018-04-19T05:45:45.355Z,97.00
2018-04-19T05:48:13.311Z,97.00
2018-04-19T05:50:41.178Z,97.00
2018-04-19T05:53:09.146Z,96.90
2018-04-19T05:55:36.942Z,96.60
2018-04-19T05:58:05.659Z,96.90
2018-04-19T06:00:33.566Z,96.90
2018-04-19T06:03:01.430Z,96.80
2018-04-19T06:05:29.297Z,96.10
2018-04-19T06:07:57.163Z,95.60
2018-04-19T06:10:25.029Z,95.30
2018-04-19T06:12:52.895Z,95.20
2018-04-19T06:15:20.766Z,95.20
2018-04-19T06:17:48.628Z,95.30
2018-04-19T06:20:16.692Z,94.80
2018-04-19T06:22:44.679Z,94.60
2018-04-19T06:25:12.636Z,94.50
2018-04-19T06:27:40.665Z,94.50
2018-04-19T06:30:08.571Z,94.00
2018-04-19T06:32:36.541Z,93.60
2018-04-19T06:35:04.512Z,92.80
2018-04-19T06:37:32.584Z,92.40
2018-04-19T06:40:00.449Z,92.00
2018-04-19T06:42:28.423Z,90.90
2018-04-19T06:44:57.103Z,88.10
2018-04-19T06:47:25.182Z,88.10
2018-04-19T06:49:53.149Z,86.70
2018-04-19T06:52:21.418Z,85.90
2018-04-19T06:54:49.350Z,84.70
2018-04-19T06:57:17.456Z,84.10
2018-04-19T06:59:45.645Z,84.20
2018-04-19T07:02:13.605Z,84.10
2018-04-19T07:04:41.784Z,84.20
2018-04-19T07:07:09.747Z,83.90
2018-04-19T07:09:37.837Z,83.80
2018-04-19T07:12:06.825Z,83.80
2018-04-19T07:14:35.625Z,83.20
2018-04-19T07:17:03.677Z,83.10
2018-04-19T07:19:32.435Z,81.20
2018-04-19T07:22:00.393Z,81.20
2018-04-19T07:24:28.423Z,80.40
2018-04-19T07:26:56.243Z,80.10
2018-04-19T07:29:24.197Z,79.30
2018-04-19T07:31:52.169Z,78.60
2018-04-19T07:34:20.350Z,77.80
2018-04-19T07:36:48.290Z,77.70
2018-04-19T07:39:16.172Z,78.10
2018-04-19T07:41:44.101Z,78.90
2018-04-19T07:44:12.068Z,79.40
2018-04-19T07:46:39.932Z,78.60
2018-04-19T07:49:07.849Z,78.10
2018-04-19T07:51:35.707Z,77.90
2018-04-19T07:54:03.573Z,77.30
2018-04-19T07:56:31.541Z,78.30
2018-04-19T07:58:59.413Z,78.00
2018-04-19T08:01:27.383Z,78.20
2018-04-19T08:03:55.448Z,78.00
2018-04-19T08:06:23.415Z,77.70
2018-04-19T08:08:51.387Z,77.10
2018-04-19T08:11:19.383Z,77.10
2018-04-19T08:13:47.525Z,77.00
2018-04-19T08:16:15.389Z,75.50
2018-04-19T08:18:43.326Z,75.50
2018-04-19T08:21:11.334Z,76.40
2018-04-19T08:23:39.305Z,76.90
2018-04-19T08:26:07.240Z,76.40
2018-04-19T08:28:35.149Z,76.30
2018-04-19T08:31:03.782Z,75.50
2018-04-19T08:33:31.795Z,75.40
2018-04-19T08:35:59.650Z,74.70
2018-04-19T08:38:27.515Z,75.70
2018-04-19T08:40:55.597Z,74.00
2018-04-19T08:43:23.575Z,75.60
2018-04-19T08:45:51.491Z,75.00
2018-04-19T08:48:19.596Z,74.10
2018-04-19T08:50:47.460Z,74.30
2018-04-19T08:53:16.255Z,74.10
2018-04-19T08:55:44.221Z,74.00
2018-04-19T08:58:12.214Z,74.40
2018-04-19T09:00:40.982Z,74.10
2018-04-19T09:03:08.917Z,74.10
2018-04-19T09:05:36.883Z,73.70
2018-04-19T09:08:04.790Z,74.30
2018-04-19T09:10:32.723Z,74.90
2018-04-19T09:13:00.720Z,74.50
2018-04-19T09:15:28.581Z,74.00
2018-04-19T09:17:56.462Z,75.20
2018-04-19T09:20:25.078Z,76.80
2018-04-19T09:22:53.020Z,76.80
2018-04-19T09:25:21.686Z,76.20
2018-04-19T09:27:50.479Z,76.00
2018-04-19T09:30:18.559Z,75.90
2018-04-19T09:32:46.508Z,75.40
2018-04-19T09:35:14.577Z,74.80
2018-04-19T09:37:42.448Z,74.70
2018-04-19T09:40:10.420Z,74.50
2018-04-19T09:42:38.277Z,75.10
2018-04-19T09:45:06.145Z,75.00
2018-04-19T09:47:34.320Z,75.90
2018-04-19T09:50:02.185Z,76.20
2018-04-19T09:52:30.050Z,75.00
2018-04-19T09:54:57.973Z,74.70
2018-04-19T09:57:25.986Z,74.10
2018-04-19T09:59:54.123Z,75.30
2018-04-19T10:02:33.799Z,74.00
2018-04-19T10:05:02.590Z,73.70
2018-04-19T10:07:30.627Z,73.90
2018-04-19T10:09:58.595Z,74.90
2018-04-19T10:12:26.669Z,74.30
2018-04-19T10:14:54.667Z,73.50
2018-04-19T10:17:22.535Z,73.20
2018-04-19T10:19:50.409Z,73.30
2018-04-19T10:22:18.510Z,73.50
2018-04-19T10:24:47.259Z,73.90
2018-04-19T10:27:15.126Z,73.90
2018-04-19T10:29:43.221Z,73.90
2018-04-19T10:32:11.884Z,73.40
2018-04-19T10:34:39.673Z,73.30
2018-04-19T10:37:08.328Z,72.40
2018-04-19T10:39:36.405Z,72.40
2018-04-19T10:42:04.378Z,72.70
2018-04-19T10:44:32.339Z,71.50
2018-04-19T10:47:00.422Z,70.70
2018-04-19T10:49:28.386Z,69.10
2018-04-19T10:51:56.240Z,68.90
2018-04-19T10:54:24.210Z,69.00
2018-04-19T10:56:52.177Z,69.00
2018-04-19T10:59:19.986Z,68.00
2018-04-19T11:01:47.888Z,68.70
2018-04-19T11:04:15.880Z,69.90
2018-04-19T11:06:43.951Z,69.30
2018-04-19T11:09:11.814Z,69.00
2018-04-19T11:11:39.993Z,68.70
2018-04-19T11:14:07.931Z,68.00
2018-04-19T11:16:35.923Z,68.50
2018-04-19T11:19:03.866Z,68.00
2018-04-19T11:21:31.758Z,68.40
2018-04-19T11:23:59.633Z,68.70
2018-04-19T11:26:27.595Z,67.80
2018-04-19T11:28:55.561Z,67.90
2018-04-19T11:31:23.428Z,67.10
2018-04-19T11:33:51.293Z,67.30
2018-04-19T11:36:19.373Z,67.00
2018-04-19T11:38:48.764Z,64.30
2018-04-19T11:41:16.632Z,64.20
2018-04-19T11:43:44.469Z,64.10
2018-04-19T11:46:12.274Z,63.50
2018-04-19T11:48:40.036Z,63.10
2018-04-19T11:51:08.052Z,63.20
2018-04-19T11:53:35.990Z,63.60
2018-04-19T11:56:04.534Z,65.50
2018-04-19T11:58:32.338Z,65.40
2018-04-19T12:01:01.151Z,64.60
2018-04-19T12:03:29.135Z,64.60
2018-04-19T12:05:56.996Z,64.80
2018-04-19T12:08:24.899Z,63.50
2018-04-19T12:10:52.771Z,62.50
2018-04-19T12:13:20.608Z,62.40
2018-04-19T12:15:48.600Z,61.40
2018-04-19T12:18:16.441Z,61.10
2018-04-19T12:20:44.266Z,61.00
2018-04-19T12:23:12.905Z,60.20
2018-04-19T12:25:40.761Z,60.10
2018-04-19T12:28:08.649Z,61.40
2018-04-19T12:30:36.415Z,61.70
2018-04-19T12:33:04.231Z,61.40
2018-04-19T12:35:32.138Z,61.50
2018-04-19T12:38:00.013Z,60.90
2018-04-19T12:40:27.786Z,60.60
2018-04-19T12:42:55.844Z,63.20
2018-04-19T12:45:23.914Z,63.40
2018-04-19T12:47:51.784Z,64.20
2018-04-19T12:50:19.751Z,64.90
2018-04-19T12:52:47.651Z,66.20
2018-04-19T12:55:16.304Z,67.00
2018-04-19T12:57:44.110Z,67.00
2018-04-19T13:00:12.033Z,67.50
2018-04-19T13:02:40.724Z,69.00
2018-04-19T13:05:08.692Z,69.00
2018-04-19T13:07:37.435Z,70.10
2018-04-19T13:10:05.347Z,70.10
2018-04-19T13:12:33.210Z,70.30
2018-04-19T13:15:01.026Z,71.30
2018-04-19T13:17:28.841Z,71.70
2018-04-19T13:19:56.653Z,72.10
2018-04-19T13:22:24.467Z,71.80
2018-04-19T13:24:52.270Z,71.70
2018-04-19T13:27:20.885Z,72.70
2018-04-19T13:29:48.693Z,72.70
2018-04-19T13:32:16.644Z,73.20
2018-04-19T13:34:44.510Z,72.10
2018-04-19T13:37:12.376Z,72.30
2018-04-19T13:39:40.242Z,72.30
2018-04-19T13:42:08.121Z,72.60
2018-04-19T13:44:35.913Z,72.50
2018-04-19T13:47:04.471Z,73.70
2018-04-19T13:49:32.364Z,73.70
2018-04-19T13:52:00.903Z,74.70
2018-04-19T13:54:28.770Z,74.70
2018-04-19T13:56:56.532Z,75.80
2018-04-19T13:59:24.356Z,75.80
2018-04-19T14:01:52.320Z,76.50
2018-04-19T14:04:20.235Z,77.50
2018-04-19T14:06:48.103Z,77.60
2018-04-19T14:09:16.073Z,77.70
2018-04-19T14:11:43.941Z,77.20
2018-04-19T14:14:11.801Z,78.90
2018-04-19T14:16:39.737Z,79.00
2018-04-19T14:21:41.953Z,80.60
2018-04-19T14:24:09.818Z,80.40
2018-04-19T14:26:37.642Z,80.80
2018-04-19T14:29:05.556Z,81.60
2018-04-19T14:31:33.417Z,80.50
2018-04-19T14:34:01.388Z,80.90
2018-04-19T14:36:29.455Z,80.70
2018-04-19T14:38:57.322Z,81.70
2018-04-19T14:41:25.190Z,82.70
2018-04-19T14:43:53.055Z,82.60
2018-04-19T14:46:20.923Z,83.10
2018-04-19T14:48:48.889Z,82.50
2018-04-19T14:51:16.755Z,82.40
2018-04-19T14:53:44.625Z,81.90
2018-04-19T14:56:12.572Z,81.20
2018-04-19T14:58:40.461Z,80.50
2018-04-19T15:01:08.321Z,80.20
2018-04-19T15:03:36.190Z,79.80
2018-04-19T15:06:04.155Z,79.00
2018-04-19T15:08:32.078Z,78.70
2018-04-19T15:11:00.091Z,79.00
2018-04-19T15:13:27.959Z,78.50
2018-04-19T15:15:55.829Z,78.30
2018-04-19T15:18:23.663Z,78.30
2018-04-19T15:20:51.558Z,77.80
2018-04-19T15:23:19.425Z,78.30
2018-04-19T15:25:47.338Z,79.20
2018-04-19T15:28:15.263Z,78.60
2018-04-19T15:30:43.313Z,78.70
2018-04-19T15:33:11.369Z,78.60
2018-04-19T15:35:39.268Z,77.80
2018-04-19T15:38:07.239Z,77.90
2018-04-19T15:40:35.057Z,78.40
2018-04-19T15:43:02.971Z,78.90
2018-04-19T15:45:30.936Z,78.10
2018-04-19T15:47:58.902Z,78.50
2018-04-19T15:50:27.466Z,77.00
2018-04-19T15:52:55.350Z,77.00
2018-04-19T15:55:23.144Z,77.90
2018-04-19T15:57:51.798Z,77.90
2018-04-19T16:00:19.617Z,77.70
2018-04-19T16:02:47.469Z,77.60
2018-04-19T16:05:16.113Z,77.60
2018-04-19T16:07:44.089Z,77.50
2018-04-19T16:10:11.996Z,77.70
2018-04-19T16:12:39.940Z,77.00
2018-04-19T16:15:08.614Z,77.90
2018-04-19T16:17:36.573Z,77.80
2018-04-19T16:20:04.444Z,78.30
2018-04-19T16:22:32.404Z,77.90
2018-04-19T16:25:00.377Z,77.60
2018-04-19T16:27:28.249Z,78.80
2018-04-19T16:29:56.108Z,78.50
2018-04-19T16:32:24.041Z,78.40
2018-04-19T16:34:52.011Z,78.10
2018-04-19T16:37:19.905Z,78.20
2018-04-19T16:39:47.771Z,79.40
2018-04-19T16:42:15.845Z,79.20
2018-04-19T16:44:43.711Z,79.30
2018-04-19T16:47:11.574Z,79.80
2018-04-19T16:49:39.543Z,79.00
2018-04-19T16:52:07.412Z,79.50
2018-04-19T16:54:35.280Z,80.00
2018-04-19T16:57:03.126Z,80.50
2018-04-19T16:59:30.968Z,80.10
2018-04-19T17:01:58.978Z,79.80
2018-04-19T17:04:26.943Z,79.90
2018-04-19T17:06:54.875Z,79.60
2018-04-19T17:09:22.885Z,80.00
2018-04-19T17:11:50.850Z,79.90
2018-04-19T17:14:18.715Z,82.40
2018-04-19T17:16:46.685Z,81.40
2018-04-19T17:19:14.651Z,82.30
2018-04-19T17:21:42.621Z,80.60
2018-04-19T17:24:10.456Z,80.90
2018-04-19T17:26:38.455Z,81.30
2018-04-19T17:29:06.320Z,81.20
2018-04-19T17:31:34.189Z,81.30
2018-04-19T17:34:02.158Z,81.50
2018-04-19T17:36:29.973Z,82.00
2018-04-19T17:38:57.855Z,81.80
2018-04-19T17:41:25.679Z,81.90
2018-04-19T17:43:54.345Z,82.40
2018-04-19T17:46:22.308Z,82.40
2018-04-19T17:48:50.172Z,82.30
2018-04-19T17:51:18.143Z,82.20
2018-04-19T17:53:46.129Z,82.00
2018-04-19T17:56:14.914Z,82.50
2018-04-19T17:58:44.336Z,82.90
2018-04-19T18:01:13.197Z,82.90
2018-04-19T18:03:41.374Z,82.80
2018-04-19T18:06:09.439Z,83.90
2018-04-19T18:08:38.333Z,83.10
2018-04-19T18:11:06.508Z,83.20
2018-04-19T18:13:34.685Z,83.20
2018-04-19T18:16:02.854Z,83.30
2018-04-19T18:18:31.135Z,83.80
2018-04-19T18:21:00.022Z,83.80
2018-04-19T18:23:28.817Z,83.60
2018-04-19T18:25:56.986Z,83.50
2018-04-19T18:28:25.107Z,83.90
2018-04-19T18:30:53.330Z,83.70
2018-04-19T18:33:21.399Z,84.00
2018-04-19T18:35:49.574Z,84.20
2018-04-19T18:38:17.747Z,84.50
2018-04-19T18:40:45.818Z,83.90
2018-04-19T18:43:13.914Z,84.40
2018-04-19T18:45:42.783Z,84.60
2018-04-19T18:48:10.951Z,84.60
2018-04-19T18:50:39.125Z,85.30
2018-04-19T18:53:07.197Z,85.80
2018-04-19T18:55:35.371Z,86.20
2018-04-19T18:58:03.438Z,86.20
2018-04-19T19:00:31.510Z,86.40
2018-04-19T19:02:59.547Z,87.00
2018-04-19T19:05:27.753Z,87.50
2018-04-19T19:07:55.930Z,87.70
2018-04-19T19:10:24.103Z,87.80
2018-04-19T19:12:54.119Z,87.80
2018-04-19T19:18:43.715Z,88.20
2018-04-19T19:21:11.770Z,88.20
2018-04-19T19:23:40.117Z,88.50
2018-04-19T19:26:08.232Z,88.40
2018-04-19T19:28:36.405Z,88.70
2018-04-19T19:31:04.579Z,88.30
2018-04-19T19:33:32.752Z,88.60
2018-04-19T19:36:00.924Z,89.00
2018-04-19T19:38:29.157Z,89.20
2018-04-19T19:40:57.637Z,89.50
2018-04-19T19:43:25.752Z,89.60
2018-04-19T19:45:53.825Z,90.00
2018-04-19T19:48:21.892Z,90.30
2018-04-19T19:50:49.962Z,90.40
2018-04-19T19:53:18.042Z,90.70
2018-04-19T19:55:46.925Z,91.10
2018-04-19T19:58:15.098Z,90.90
2018-04-19T20:00:44.715Z,91.30
2018-04-19T20:03:13.599Z,91.40
2018-04-19T20:05:41.673Z,91.40
2018-04-19T20:08:09.860Z,91.60
2018-04-19T20:10:40.573Z,91.80
2018-04-19T20:13:08.632Z,92.00
2018-04-19T20:15:36.612Z,92.20
2018-04-19T20:18:04.584Z,92.30
2018-04-19T20:20:32.753Z,92.40
2018-04-19T20:23:00.825Z,92.60
2018-04-19T20:25:30.433Z,92.90
2018-04-19T20:27:58.626Z,92.90
2018-04-19T20:30:27.495Z,93.30
2018-04-19T20:32:55.567Z,93.20
2018-04-19T20:35:23.635Z,93.30
2018-04-19T20:37:51.712Z,93.60
2018-04-19T20:40:19.778Z,93.70
2018-04-19T20:42:48.668Z,94.00
2018-04-19T20:45:16.740Z,93.80
2018-04-19T20:47:44.810Z,93.90
2018-04-19T20:50:12.843Z,94.00
2018-04-19T20:52:40.880Z,93.90
2018-04-19T20:55:09.843Z,94.00
2018-04-19T20:57:38.731Z,93.90
2018-04-19T21:00:06.690Z,93.90
2018-04-19T21:02:35.478Z,93.80
2018-04-19T21:05:03.447Z,93.80
2018-04-19T21:07:31.412Z,93.30
2018-04-19T21:10:32.035Z,93.20
2018-04-19T21:13:00.116Z,93.10
2018-04-19T21:15:27.982Z,93.10
2018-04-19T21:17:55.923Z,93.00
2018-04-19T21:20:23.818Z,92.90
2018-04-19T21:22:51.803Z,92.90
2018-04-19T21:25:19.772Z,92.90
2018-04-19T21:27:47.625Z,92.80
2018-04-19T21:30:15.475Z,92.70
2018-04-19T21:32:43.351Z,92.60
2018-04-19T21:35:11.245Z,92.70
2018-04-19T21:37:40.010Z,92.50
2018-04-19T21:40:07.876Z,92.50
2018-04-19T21:42:36.662Z,92.50
2018-04-19T21:45:04.639Z,92.50
2018-04-19T21:47:32.496Z,92.50
